Time;durP1;ratioP1;P1;durP2;ratioP2;P2;SDS_P1;SDS_P2;PMS_P1;PMS_P2;Temp;Humidity;BMP_temperature;BMP_pressure;BME280_temperature;BME280_humidity;BME280_pressure;Samples;Min_cycle;Max_cycle;Signal;HPM_P1;HPM_P2
2021/11/12 00:04:34;;;;;;;;;;;12.40;99.90;;;;;;6140054;23;20245;-81
2021/11/12 00:12:39;;;;;;;;;;;12.60;99.90;;;;;;6134721;23;19929;-80
2021/11/12 00:15:05;;;;;;;;;;;12.50;99.90;;;;;;6137966;23;19905;-83
2021/11/12 00:17:33;;;;;;;;;;;12.50;99.90;;;;;;6136102;23;19905;-83
2021/11/12 00:19:59;;;;;;;;;;;12.60;99.90;;;;;;6138212;23;19955;-80
2021/11/12 00:22:26;;;;;;;;;;;12.70;99.90;;;;;;6138529;23;20407;-84
2021/11/12 00:24:53;;;;;;;;;;;12.80;99.90;;;;;;6137521;23;20318;-81
2021/11/12 00:27:20;;;;;;;;;;;12.80;99.90;;;;;;6133912;23;19965;-81
2021/11/12 00:30:21;;;;;;;;;;;12.90;99.90;;;;;;6135361;23;19908;-82
2021/11/12 00:32:51;;;;;;;;;;;12.90;99.90;;;;;;6135074;23;19956;-81
2021/11/12 00:40:46;;;;;;;;;;;12.90;99.90;;;;;;6137395;23;19905;-82
2021/11/12 00:46:17;;;;;;;;;;;13.00;99.90;;;;;;6136241;23;19946;-80
2021/11/12 00:49:05;;;;;;;;;;;13.00;99.90;;;;;;6136816;23;20417;-81
2021/11/12 00:51:38;;;;;;;;;;;13.10;99.90;;;;;;6136267;23;19905;-83
2021/11/12 00:56:30;;;;;;;;;;;13.20;99.90;;;;;;6136053;23;19939;-81
2021/11/12 00:58:57;;;;;;;;;;;13.20;99.90;;;;;;6135625;23;19909;-81
2021/11/12 01:01:23;;;;;;;;;;;13.20;99.90;;;;;;6135667;23;19916;-82
2021/11/12 01:03:49;;;;;;;;;;;13.20;99.90;;;;;;6135409;23;19984;-80
2021/11/12 01:06:15;;;;;;;;;;;13.20;99.90;;;;;;6136059;23;19932;-81
2021/11/12 01:08:42;;;;;;;;;;;13.20;99.90;;;;;;6111204;23;20322;-80
2021/11/12 01:11:10;;;;;;;;;;;13.20;99.90;;;;;;6138853;23;19939;-81
2021/11/12 01:13:36;;;;;;;;;;;13.20;99.90;;;;;;6138776;23;20343;-80
2021/11/12 01:16:03;;;;;;;;;;;13.10;99.90;;;;;;6136198;23;19948;-81
2021/11/12 01:18:28;;;;;;;;;;;13.10;99.90;;;;;;6108462;23;20358;-81
2021/11/12 01:20:54;;;;;;;;;;;13.10;99.90;;;;;;6134938;23;19905;-80
2021/11/12 01:23:20;;;;;;;;;;;13.10;99.90;;;;;;6128150;23;19905;-80
2021/11/12 01:25:46;;;;;;;;;;;13.10;99.90;;;;;;6128218;23;19912;-81
2021/11/12 01:28:11;;;;;;;;;;;13.10;99.90;;;;;;6137447;23;20294;-83
2021/11/12 01:30:37;;;;;;;;;;;13.10;99.90;;;;;;6136169;23;19905;-83
2021/11/12 01:33:03;;;;;;;;;;;13.10;99.90;;;;;;6136602;23;19905;-80
2021/11/12 01:35:29;;;;;;;;;;;13.10;99.90;;;;;;6137729;23;19944;-79
2021/11/12 01:37:56;;;;;;;;;;;13.10;99.90;;;;;;6111304;23;19929;-82
2021/11/12 01:40:24;;;;;;;;;;;13.00;99.90;;;;;;6139082;23;20261;-85
2021/11/12 01:43:15;;;;;;;;;;;13.00;99.90;;;;;;6138411;23;19921;-80
2021/11/12 01:48:41;;;;;;;;;;;13.00;99.90;;;;;;6138958;23;19924;-82
2021/11/12 01:51:10;;;;;;;;;;;13.00;99.90;;;;;;6138336;23;19931;-81
2021/11/12 01:53:41;;;;;;;;;;;12.80;99.90;;;;;;6138966;23;20355;-82
2021/11/12 02:01:22;;;;;;;;;;;12.30;99.90;;;;;;6137313;23;19913;-81
2021/11/12 02:03:49;;;;;;;;;;;12.30;99.90;;;;;;6137518;23;19984;-79
2021/11/12 02:06:21;;;;;;;;;;;12.20;99.90;;;;;;6138559;23;20229;-81
2021/11/12 02:08:47;;;;;;;;;;;12.10;99.90;;;;;;6115389;23;20254;-82
2021/11/12 02:11:13;;;;;;;;;;;12.10;99.90;;;;;;6138570;23;19916;-82
2021/11/12 02:13:41;;;;;;;;;;;12.10;99.90;;;;;;6140408;23;19980;-81
2021/11/12 02:16:08;;;;;;;;;;;12.00;99.90;;;;;;6139418;23;19909;-81
2021/11/12 02:18:40;;;;;;;;;;;11.90;99.90;;;;;;6136363;23;19917;-80
2021/11/12 02:21:16;;;;;;;;;;;11.90;99.90;;;;;;6137447;23;19924;-80
2021/11/12 02:23:49;;;;;;;;;;;11.80;99.90;;;;;;6137303;23;19995;-81
2021/11/12 02:26:23;;;;;;;;;;;11.70;99.90;;;;;;6129214;23;19915;-81
2021/11/12 02:28:53;;;;;;;;;;;11.60;99.90;;;;;;6128614;23;19905;-81
2021/11/12 02:31:19;;;;;;;;;;;11.60;99.90;;;;;;6130015;23;19905;-81
2021/11/12 02:33:45;;;;;;;;;;;11.60;99.90;;;;;;6130028;23;19905;-80
2021/11/12 02:36:13;;;;;;;;;;;11.60;99.90;;;;;;6136919;23;19932;-81
2021/11/12 02:38:40;;;;;;;;;;;11.70;99.90;;;;;;6115017;23;20245;-83
2021/11/12 02:41:06;;;;;;;;;;;11.60;99.90;;;;;;6141610;23;19905;-81
2021/11/12 02:43:33;;;;;;;;;;;11.60;99.90;;;;;;6141679;23;19912;-81
2021/11/12 02:46:01;;;;;;;;;;;11.70;99.90;;;;;;6115565;23;19920;-82
2021/11/12 02:48:27;;;;;;;;;;;11.70;99.90;;;;;;6141460;23;19929;-81
2021/11/12 02:50:54;;;;;;;;;;;11.60;99.90;;;;;;6140374;23;19916;-81
2021/11/12 02:53:20;;;;;;;;;;;11.60;99.90;;;;;;6140637;23;19905;-81
2021/11/12 02:55:46;;;;;;;;;;;11.60;99.90;;;;;;6142575;23;19952;-81
2021/11/12 02:58:13;;;;;;;;;;;11.50;99.90;;;;;;6142871;23;20329;-82
2021/11/12 03:00:40;;;;;;;;;;;11.50;99.90;;;;;;6142692;23;19909;-80
2021/11/12 03:03:06;;;;;;;;;;;11.50;99.90;;;;;;6141997;23;19905;-83
2021/11/12 03:05:32;;;;;;;;;;;11.40;99.90;;;;;;6142737;23;20342;-82
2021/11/12 03:07:58;;;;;;;;;;;11.40;99.90;;;;;;6143346;23;20578;-85
2021/11/12 03:10:24;;;;;;;;;;;11.40;99.90;;;;;;6116969;23;19920;-82
2021/11/12 03:12:50;;;;;;;;;;;11.40;99.90;;;;;;6116600;23;20026;-81
2021/11/12 03:15:16;;;;;;;;;;;11.40;99.90;;;;;;6117670;23;19905;-83
2021/11/12 03:17:42;;;;;;;;;;;11.40;99.90;;;;;;6141184;23;19909;-81
2021/11/12 03:20:11;;;;;;;;;;;11.40;99.90;;;;;;6114548;23;20574;-83
2021/11/12 03:22:41;;;;;;;;;;;11.40;99.90;;;;;;6138979;23;19985;-81
2021/11/12 03:25:11;;;;;;;;;;;11.40;99.90;;;;;;6140314;23;19909;-85
2021/11/12 03:28:25;;;;;;;;;;;11.50;99.90;;;;;;6142184;23;19932;-84
2021/11/12 05:43:54;;;;;;;;;;;12.70;99.90;;;;;;6147674;23;19936;-79
2021/11/12 05:46:16;;;;;;;;;;;12.70;99.90;;;;;;6141060;23;19953;-78
2021/11/12 05:51:44;;;;;;;;;;;12.70;99.90;;;;;;6148461;23;19916;-79
2021/11/12 05:56:55;;;;;;;;;;;12.80;99.90;;;;;;6147799;23;19919;-80
2021/11/12 05:59:21;;;;;;;;;;;12.80;99.90;;;;;;6122982;23;19904;-79
2021/11/12 06:01:47;;;;;;;;;;;12.80;99.90;;;;;;6147353;23;19932;-79
2021/11/12 06:04:13;;;;;;;;;;;12.80;99.90;;;;;;6148377;23;19909;-80
2021/11/12 06:06:39;;;;;;;;;;;12.80;99.90;;;;;;6120563;23;20437;-79
2021/11/12 06:09:05;;;;;;;;;;;12.80;99.90;;;;;;6114672;23;19905;-80
2021/11/12 06:11:31;;;;;;;;;;;12.80;99.90;;;;;;6141699;23;19904;-79
2021/11/12 06:13:57;;;;;;;;;;;12.80;99.90;;;;;;6141396;23;19894;-79
2021/11/12 06:16:23;;;;;;;;;;;12.80;99.90;;;;;;6120165;23;19909;-80
2021/11/12 06:18:50;;;;;;;;;;;12.80;99.90;;;;;;6147956;23;19892;-79
2021/11/12 06:21:15;;;;;;;;;;;12.80;99.90;;;;;;6120781;23;19905;-80
2021/11/12 06:23:41;;;;;;;;;;;12.80;99.90;;;;;;6147245;23;19933;-81
2021/11/12 06:26:07;;;;;;;;;;;12.70;99.90;;;;;;6122462;23;19909;-80
2021/11/12 06:28:33;;;;;;;;;;;12.80;99.90;;;;;;6120828;23;19912;-80
2021/11/12 06:31:00;;;;;;;;;;;12.80;99.90;;;;;;6146137;23;19921;-79
2021/11/12 06:33:27;;;;;;;;;;;12.80;99.90;;;;;;6145661;23;19905;-80
2021/11/12 06:35:53;;;;;;;;;;;12.80;99.90;;;;;;6145550;23;19913;-81
2021/11/12 06:38:25;;;;;;;;;;;12.70;99.90;;;;;;6145271;23;19905;-80
2021/11/12 06:40:52;;;;;;;;;;;12.70;99.90;;;;;;6145756;23;19916;-80
2021/11/12 06:51:23;;;;;;;;;;;12.90;99.90;;;;;;6147148;23;19973;-80
2021/11/12 06:53:49;;;;;;;;;;;12.90;99.90;;;;;;6106036;23;19905;-76
2021/11/12 06:56:15;;;;;;;;;;;12.90;99.90;;;;;;6102986;23;19913;-77
2021/11/12 06:58:41;;;;;;;;;;;12.90;99.90;;;;;;6129404;23;20339;-77
2021/11/12 07:01:06;;;;;;;;;;;13.00;99.90;;;;;;6105784;23;19909;-77
2021/11/12 07:03:32;;;;;;;;;;;13.10;99.90;;;;;;6105023;23;20264;-77
2021/11/12 07:05:58;;;;;;;;;;;13.10;99.90;;;;;;6129089;23;19916;-75
2021/11/12 07:08:24;;;;;;;;;;;13.10;99.90;;;;;;6128463;23;19939;-76
2021/11/12 07:10:52;;;;;;;;;;;13.20;99.90;;;;;;6128312;23;19905;-77
2021/11/12 07:13:24;;;;;;;;;;;13.20;99.90;;;;;;6129328;23;19987;-76
2021/11/12 07:15:50;;;;;;;;;;;13.30;99.90;;;;;;6133166;23;19930;-76
2021/11/12 07:18:15;;;;;;;;;;;13.30;99.90;;;;;;6108638;23;19909;-75
2021/11/12 07:20:41;;;;;;;;;;;13.40;99.90;;;;;;6139825;23;20226;-75
2021/11/12 07:23:07;;;;;;;;;;;13.50;99.90;;;;;;6147244;23;19900;-75
2021/11/12 07:25:33;;;;;;;;;;;13.60;99.90;;;;;;6142830;23;19913;-76
2021/11/12 07:27:59;;;;;;;;;;;13.60;99.90;;;;;;6101103;23;19912;-78
2021/11/12 07:30:24;;;;;;;;;;;13.60;99.90;;;;;;6126797;23;20253;-76
2021/11/12 07:32:51;;;;;;;;;;;13.80;99.90;;;;;;6126261;23;19947;-75
2021/11/12 07:35:22;;;;;;;;;;;13.80;99.90;;;;;;6136201;23;19969;-75
2021/11/12 07:37:48;;;;;;;;;;;13.90;99.90;;;;;;6138913;23;20237;-74
2021/11/12 07:40:23;;;;;;;;;;;14.00;99.90;;;;;;6145153;23;19913;-76
2021/11/12 07:44:10;;;;;;;;;;;14.10;99.90;;;;;;6144426;23;19925;-75
2021/11/12 07:45:51;;;;;;;;;;;14.10;99.90;;;;;;6142392;23;19957;-76
2021/11/12 07:48:17;;;;;;;;;;;14.30;99.90;;;;;;6127757;23;20326;-77
2021/11/12 07:50:43;;;;;;;;;;;14.30;99.90;;;;;;6128066;23;19905;-77
2021/11/12 07:53:09;;;;;;;;;;;14.50;99.90;;;;;;6129029;23;19905;-78
2021/11/12 07:55:35;;;;;;;;;;;14.60;99.90;;;;;;6132062;23;20389;-77
2021/11/12 07:58:00;;;;;;;;;;;14.70;99.90;;;;;;6134266;23;20408;-77
2021/11/12 08:00:26;;;;;;;;;;;14.60;99.90;;;;;;6134631;23;19912;-77
2021/11/12 08:02:52;;;;;;;;;;;14.60;99.90;;;;;;6136151;23;19911;-77
2021/11/12 08:05:26;;;;;;;;;;;14.70;99.90;;;;;;6105617;23;20341;-76
2021/11/12 08:07:55;;;;;;;;;;;14.70;99.90;;;;;;6127001;23;19909;-76
2021/11/12 08:10:23;;;;;;;;;;;14.70;99.90;;;;;;6102872;23;19927;-76
2021/11/12 08:12:59;;;;;;;;;;;14.70;99.90;;;;;;6129344;23;19943;-77
2021/11/12 08:18:47;;;;;;;;;;;14.70;99.90;;;;;;6127540;23;19905;-77
2021/11/12 08:20:56;;;;;;;;;;;14.70;99.90;;;;;;6106529;23;19944;-76
2021/11/12 08:23:29;;;;;;;;;;;14.90;99.90;;;;;;6127400;23;20254;-76
2021/11/12 08:26:09;;;;;;;;;;;14.90;99.90;;;;;;6127884;23;19925;-75
2021/11/12 08:28:55;;;;;;;;;;;14.90;99.90;;;;;;6102499;23;19905;-75
2021/11/12 08:34:17;;;;;;;;;;;15.20;99.90;;;;;;6100810;23;19909;-75
2021/11/12 08:37:09;;;;;;;;;;;15.30;99.90;;;;;;6126716;23;19905;-74
2021/11/12 08:42:08;;;;;;;;;;;15.30;99.90;;;;;;6128035;23;20336;-73
2021/11/12 08:44:45;;;;;;;;;;;15.40;99.90;;;;;;6126828;23;19936;-74
2021/11/12 08:49:38;;;;;;;;;;;15.40;99.90;;;;;;6128709;23;19916;-75
2021/11/12 08:52:05;;;;;;;;;;;15.50;99.90;;;;;;6102362;23;19956;-76
2021/11/12 08:54:39;;;;;;;;;;;15.60;99.90;;;;;;6102902;23;19925;-74
2021/11/12 08:57:16;;;;;;;;;;;15.60;99.90;;;;;;6103348;23;19905;-75
2021/11/12 08:59:45;;;;;;;;;;;15.60;99.90;;;;;;6130696;23;19912;-75
2021/11/12 09:02:15;;;;;;;;;;;15.60;99.90;;;;;;6130654;23;19912;-75
2021/11/12 09:04:42;;;;;;;;;;;15.70;99.90;;;;;;6129567;23;20289;-76
2021/11/12 09:07:09;;;;;;;;;;;15.70;99.90;;;;;;6129346;23;19904;-76
2021/11/12 09:09:36;;;;;;;;;;;15.70;99.90;;;;;;6103035;23;19912;-75
2021/11/12 09:12:03;;;;;;;;;;;15.70;99.90;;;;;;6128490;23;20032;-76
2021/11/12 09:14:30;;;;;;;;;;;15.80;99.90;;;;;;6129507;23;19935;-76
2021/11/12 09:17:03;;;;;;;;;;;15.80;99.90;;;;;;6102556;23;19937;-75
2021/11/12 09:19:28;;;;;;;;;;;15.90;99.90;;;;;;6128903;23;19904;-76
2021/11/12 09:21:54;;;;;;;;;;;16.00;99.90;;;;;;6127858;23;19905;-76
2021/11/12 09:24:20;;;;;;;;;;;16.10;99.90;;;;;;6102933;23;19909;-76
2021/11/12 09:26:46;;;;;;;;;;;16.10;99.90;;;;;;6130269;23;19963;-75
2021/11/12 09:29:12;;;;;;;;;;;16.20;99.90;;;;;;6129696;23;19923;-76
2021/11/12 09:31:38;;;;;;;;;;;16.30;99.90;;;;;;6128642;23;20276;-75
2021/11/12 09:34:05;;;;;;;;;;;16.30;99.90;;;;;;6128953;23;19912;-76
2021/11/12 09:36:31;;;;;;;;;;;16.20;99.90;;;;;;6128191;23;19942;-76
2021/11/12 09:38:57;;;;;;;;;;;16.30;99.90;;;;;;6102718;23;19905;-76
2021/11/12 09:41:23;;;;;;;;;;;16.30;99.90;;;;;;6102445;23;19931;-75
2021/11/12 09:43:50;;;;;;;;;;;16.30;99.90;;;;;;6102070;23;19946;-75
2021/11/12 09:46:16;;;;;;;;;;;16.20;99.90;;;;;;6128645;23;19916;-76
2021/11/12 09:48:42;;;;;;;;;;;16.20;99.90;;;;;;6128277;23;20299;-75
2021/11/12 09:51:09;;;;;;;;;;;16.10;99.90;;;;;;6128357;23;19905;-76
2021/11/12 09:53:35;;;;;;;;;;;15.90;99.90;;;;;;6126332;23;19942;-74
2021/11/12 09:56:02;;;;;;;;;;;15.90;99.90;;;;;;6123848;23;19977;-76
2021/11/12 09:58:28;;;;;;;;;;;16.00;99.90;;;;;;6125078;23;20353;-75
2021/11/12 10:00:58;;;;;;;;;;;16.00;99.90;;;;;;6126637;23;19905;-75
2021/11/12 10:03:31;;;;;;;;;;;16.00;99.90;;;;;;6125528;23;19993;-75
2021/11/12 10:05:57;;;;;;;;;;;15.80;99.90;;;;;;6126430;23;19909;-76
2021/11/12 10:08:30;;;;;;;;;;;15.70;99.90;;;;;;6126111;23;19979;-76
2021/11/12 10:10:58;;;;;;;;;;;15.60;99.90;;;;;;6125556;23;19925;-75
2021/11/12 10:13:28;;;;;;;;;;;15.50;99.90;;;;;;6126246;23;19905;-76
2021/11/12 10:16:05;;;;;;;;;;;15.50;99.90;;;;;;6124956;23;20186;-76
2021/11/12 10:18:31;;;;;;;;;;;15.50;99.90;;;;;;6127169;23;19905;-75
2021/11/12 10:20:58;;;;;;;;;;;15.60;99.90;;;;;;6126685;23;19905;-75
2021/11/12 10:23:28;;;;;;;;;;;15.60;99.90;;;;;;6126704;23;19980;-76
2021/11/12 10:26:12;;;;;;;;;;;15.60;99.90;;;;;;6125484;23;19924;-76
2021/11/12 10:28:38;;;;;;;;;;;15.70;99.90;;;;;;6127319;23;19979;-76
2021/11/12 10:31:31;;;;;;;;;;;15.80;99.90;;;;;;6125875;23;19905;-76
2021/11/12 10:33:58;;;;;;;;;;;15.80;99.90;;;;;;6121662;23;19905;-74
2021/11/12 10:36:23;;;;;;;;;;;15.90;99.90;;;;;;6124501;23;19980;-76
2021/11/12 10:38:49;;;;;;;;;;;15.90;99.90;;;;;;6126266;23;19983;-75
2021/11/12 10:41:17;;;;;;;;;;;16.00;99.90;;;;;;6127309;23;19920;-75
2021/11/12 10:43:42;;;;;;;;;;;16.10;99.90;;;;;;6126067;23;19984;-75
2021/11/12 10:46:08;;;;;;;;;;;16.30;99.90;;;;;;6124994;23;19944;-76
2021/11/12 10:48:34;;;;;;;;;;;16.30;99.90;;;;;;6125837;23;19956;-75
2021/11/12 10:51:18;;;;;;;;;;;16.40;99.90;;;;;;6125933;23;19952;-75
2021/11/12 10:53:50;;;;;;;;;;;16.40;99.90;;;;;;6126027;23;19905;-75
2021/11/12 10:56:16;;;;;;;;;;;16.30;99.90;;;;;;6099618;23;19944;-76
2021/11/12 10:58:58;;;;;;;;;;;16.20;99.90;;;;;;6125553;23;19905;-75
2021/11/12 11:01:35;;;;;;;;;;;16.20;99.90;;;;;;6125829;23;19909;-76
2021/11/12 11:04:15;;;;;;;;;;;16.10;99.90;;;;;;6125800;23;19905;-76
2021/11/12 11:06:41;;;;;;;;;;;16.10;99.90;;;;;;6124637;23;19959;-76
2021/11/12 11:09:07;;;;;;;;;;;16.20;99.90;;;;;;6124987;23;19905;-76
2021/11/12 11:11:39;;;;;;;;;;;16.30;99.90;;;;;;6125338;23;19966;-75
2021/11/12 11:14:05;;;;;;;;;;;16.50;99.90;;;;;;6125488;23;19927;-75
2021/11/12 11:16:35;;;;;;;;;;;16.50;99.90;;;;;;6124733;23;20344;-75
2021/11/12 11:19:01;;;;;;;;;;;16.40;99.90;;;;;;6125352;23;19905;-76
2021/11/12 11:21:27;;;;;;;;;;;16.50;99.90;;;;;;6126397;23;19944;-76
2021/11/12 11:23:59;;;;;;;;;;;16.40;99.90;;;;;;6125832;23;20150;-76
2021/11/12 11:26:29;;;;;;;;;;;16.40;99.90;;;;;;6127382;23;20038;-77
2021/11/12 11:28:58;;;;;;;;;;;16.40;99.90;;;;;;6127650;23;19935;-76
2021/11/12 11:31:24;;;;;;;;;;;16.30;99.90;;;;;;6126915;23;19905;-76
2021/11/12 11:33:50;;;;;;;;;;;16.40;99.90;;;;;;6127272;23;19912;-77
2021/11/12 11:36:21;;;;;;;;;;;16.40;99.90;;;;;;6126729;23;19984;-75
2021/11/12 11:38:48;;;;;;;;;;;16.40;99.90;;;;;;6127441;23;19908;-77
2021/11/12 11:41:15;;;;;;;;;;;16.30;99.90;;;;;;6127498;23;20249;-77
2021/11/12 11:43:41;;;;;;;;;;;16.10;99.90;;;;;;6102764;23;19905;-75
2021/11/12 11:46:13;;;;;;;;;;;16.10;99.90;;;;;;6127250;23;19992;-76
2021/11/12 11:48:39;;;;;;;;;;;16.10;99.90;;;;;;6132364;23;19933;-77
2021/11/12 11:51:06;;;;;;;;;;;16.00;99.90;;;;;;6130439;23;19951;-76
2021/11/12 11:53:38;;;;;;;;;;;15.90;99.90;;;;;;6127680;23;19905;-76
2021/11/12 11:56:11;;;;;;;;;;;15.80;99.90;;;;;;6126447;23;19916;-77
2021/11/12 11:58:39;;;;;;;;;;;15.70;99.90;;;;;;6126255;23;19928;-76
2021/11/12 12:01:20;;;;;;;;;;;15.70;99.90;;;;;;6125910;23;19905;-77
2021/11/12 12:03:46;;;;;;;;;;;15.80;99.90;;;;;;6126346;23;19905;-76
2021/11/12 12:06:17;;;;;;;;;;;15.90;99.90;;;;;;6126565;23;19955;-76
2021/11/12 12:09:01;;;;;;;;;;;16.00;99.90;;;;;;6100583;23;19909;-76
2021/11/12 12:11:26;;;;;;;;;;;16.00;99.90;;;;;;6126088;23;19975;-76
2021/11/12 12:14:12;;;;;;;;;;;16.10;99.90;;;;;;6126787;23;19924;-76
2021/11/12 12:16:38;;;;;;;;;;;16.20;99.90;;;;;;6110812;23;19915;-75
2021/11/12 12:19:06;;;;;;;;;;;16.30;99.90;;;;;;6125805;23;20283;-77
2021/11/12 12:33:31;;;;;;;;;;;17.00;99.90;;;;;;6102751;23;19912;-77
2021/11/12 12:37:03;;;;;;;;;;;17.10;99.90;;;;;;6091241;23;19905;-76
2021/11/12 13:24:30;;;;;;;;;;;16.30;99.90;;;;;;6146426;23;19960;-77
2021/11/12 13:27:03;;;;;;;;;;;16.30;99.90;;;;;;6134822;23;19905;-77
2021/11/12 13:29:29;;;;;;;;;;;16.30;99.90;;;;;;6109340;23;19905;-77
2021/11/12 13:32:02;;;;;;;;;;;16.30;99.90;;;;;;6130165;23;19912;-76
2021/11/12 13:34:29;;;;;;;;;;;16.30;99.90;;;;;;6129423;23;19909;-77
2021/11/12 13:36:55;;;;;;;;;;;16.30;99.90;;;;;;6106350;23;19957;-77
2021/11/12 13:39:21;;;;;;;;;;;16.10;99.90;;;;;;6126176;23;19912;-75
2021/11/12 13:41:48;;;;;;;;;;;16.00;99.90;;;;;;6125443;23;19960;-76
2021/11/12 13:44:13;;;;;;;;;;;16.00;99.90;;;;;;6131973;23;19929;-77
2021/11/12 13:46:57;;;;;;;;;;;15.90;99.90;;;;;;6137270;23;19905;-76
2021/11/12 13:49:40;;;;;;;;;;;15.90;99.90;;;;;;6132125;23;20190;-76
2021/11/12 13:52:10;;;;;;;;;;;15.80;99.90;;;;;;6131680;23;19909;-76
2021/11/12 13:54:53;;;;;;;;;;;15.90;99.90;;;;;;6134482;23;19913;-76
2021/11/12 13:57:22;;;;;;;;;;;15.90;99.90;;;;;;6127427;23;19911;-77
2021/11/12 13:59:59;;;;;;;;;;;15.80;99.90;;;;;;6127914;23;19905;-77
2021/11/12 14:02:29;;;;;;;;;;;15.80;99.90;;;;;;6129638;23;19921;-77
2021/11/12 14:05:10;;;;;;;;;;;15.70;99.90;;;;;;6102992;23;19909;-81
2021/11/12 14:07:36;;;;;;;;;;;15.70;99.90;;;;;;6098228;23;19912;-75
2021/11/12 14:10:04;;;;;;;;;;;15.60;99.90;;;;;;6124258;23;19984;-76
2021/11/12 14:12:31;;;;;;;;;;;15.50;99.90;;;;;;6125962;23;19905;-77
2021/11/12 14:15:05;;;;;;;;;;;15.40;99.90;;;;;;6126734;23;19905;-77
2021/11/12 14:17:32;;;;;;;;;;;15.40;99.90;;;;;;6126253;23;19905;-75
2021/11/12 14:22:54;;;;;;;;;;;15.50;99.90;;;;;;6135920;23;19905;-76
2021/11/12 14:28:34;;;;;;;;;;;15.60;99.90;;;;;;6093515;23;19905;-77
2021/11/12 14:33:46;;;;;;;;;;;15.70;99.90;;;;;;6135869;23;19905;-75
2021/11/12 14:39:46;;;;;;;;;;;15.80;99.90;;;;;;6089854;23;19909;-77
2021/11/12 14:44:59;;;;;;;;;;;15.80;99.90;;;;;;6130764;23;19919;-76
2021/11/12 14:47:41;;;;;;;;;;;15.80;99.90;;;;;;6125115;23;19905;-75
2021/11/12 14:50:29;;;;;;;;;;;15.90;99.90;;;;;;6124781;23;19905;-75
2021/11/12 14:53:17;;;;;;;;;;;15.90;99.90;;;;;;6126578;23;19905;-77
2021/11/12 14:55:43;;;;;;;;;;;15.80;99.90;;;;;;6105115;23;19909;-75
2021/11/12 14:58:11;;;;;;;;;;;15.80;99.90;;;;;;6105432;23;19905;-75
2021/11/12 15:00:38;;;;;;;;;;;15.80;99.90;;;;;;6124977;23;20344;-74
2021/11/12 15:03:06;;;;;;;;;;;15.70;99.90;;;;;;6125011;23;19912;-76
2021/11/12 15:05:32;;;;;;;;;;;15.70;99.90;;;;;;6125018;23;19932;-75
2021/11/12 15:08:12;;;;;;;;;;;15.70;99.90;;;;;;6124266;23;19905;-75
2021/11/12 15:10:39;;;;;;;;;;;15.70;99.90;;;;;;6125977;23;19917;-77
2021/11/12 15:13:05;;;;;;;;;;;15.60;99.90;;;;;;6126933;23;19905;-75
2021/11/12 15:15:31;;;;;;;;;;;15.60;99.90;;;;;;6128848;23;20294;-75
2021/11/12 15:17:59;;;;;;;;;;;15.70;99.90;;;;;;6131671;23;19905;-75
2021/11/12 15:20:27;;;;;;;;;;;15.60;99.90;;;;;;6133409;23;19909;-76
2021/11/12 15:25:33;;;;;;;;;;;15.70;99.90;;;;;;6130141;23;19955;-75
2021/11/12 15:28:07;;;;;;;;;;;15.70;99.90;;;;;;6134646;23;19913;-75
2021/11/12 15:30:44;;;;;;;;;;;15.70;99.90;;;;;;6130929;23;19909;-75
2021/11/12 15:33:25;;;;;;;;;;;15.60;99.90;;;;;;6131715;23;19912;-74
2021/11/12 15:35:55;;;;;;;;;;;15.50;99.90;;;;;;6131028;23;19905;-74
2021/11/12 15:38:36;;;;;;;;;;;15.40;99.90;;;;;;6101543;23;20233;-74
2021/11/12 15:41:15;;;;;;;;;;;15.40;99.90;;;;;;6127072;23;20293;-76
2021/11/12 15:46:23;;;;;;;;;;;15.20;99.90;;;;;;6137940;23;19931;-75
2021/11/12 15:48:50;;;;;;;;;;;15.10;99.90;;;;;;6126544;23;19912;-74
2021/11/12 15:51:36;;;;;;;;;;;15.10;99.90;;;;;;6124857;23;19987;-76
2021/11/12 15:59:09;;;;;;;;;;;14.80;99.90;;;;;;6127319;23;19909;-75
2021/11/12 16:15:14;;;;;;;;;;;14.40;99.90;;;;;;6138384;23;19905;-75
2021/11/12 16:20:25;;;;;;;;;;;14.30;99.90;;;;;;6139179;23;19979;-76
2021/11/12 16:25:25;;;;;;;;;;;14.30;99.90;;;;;;6139730;23;20466;-75
2021/11/12 16:27:54;;;;;;;;;;;14.20;99.90;;;;;;6127348;23;19992;-76
2021/11/12 16:30:23;;;;;;;;;;;14.10;99.90;;;;;;6128007;23;19960;-76
2021/11/12 16:32:51;;;;;;;;;;;14.10;99.90;;;;;;6126721;23;19908;-75
2021/11/12 16:35:19;;;;;;;;;;;14.00;99.90;;;;;;6126234;23;19905;-75
2021/11/12 16:37:47;;;;;;;;;;;14.00;99.90;;;;;;6126073;23;20289;-75
2021/11/12 16:40:37;;;;;;;;;;;13.90;99.90;;;;;;6126061;23;20335;-75
2021/11/12 16:50:38;;;;;;;;;;;13.70;99.90;;;;;;6126581;23;20110;-76
2021/11/12 16:58:18;;;;;;;;;;;13.60;99.90;;;;;;6127415;23;19913;-75
2021/11/12 17:03:28;;;;;;;;;;;13.50;99.90;;;;;;6137884;23;19995;-77
2021/11/12 18:02:14;;;;;;;;;;;13.80;99.90;;;;;;6125433;23;19974;-75
2021/11/12 18:07:48;;;;;;;;;;;13.70;99.90;;;;;;6127541;23;19912;-75
2021/11/12 21:45:00;;;;;;;;;;;14.20;99.90;;;;;;6144931;23;19960;-80
2021/11/12 21:47:26;;;;;;;;;;;14.20;99.90;;;;;;6144426;23;19905;-80
2021/11/12 21:49:53;;;;;;;;;;;14.30;99.90;;;;;;6144632;23;19909;-80
2021/11/12 21:52:18;;;;;;;;;;;14.20;99.90;;;;;;6146567;23;19931;-81
2021/11/12 21:54:44;;;;;;;;;;;14.20;99.90;;;;;;6148614;23;19893;-81
2021/11/12 21:57:09;;;;;;;;;;;14.20;99.90;;;;;;6147591;23;19912;-82
2021/11/12 21:59:35;;;;;;;;;;;14.20;99.90;;;;;;6146703;23;19905;-81
2021/11/12 22:02:02;;;;;;;;;;;14.20;99.90;;;;;;6147562;23;20091;-82
2021/11/12 22:04:27;;;;;;;;;;;14.20;99.90;;;;;;6149571;23;19932;-80
2021/11/12 22:06:55;;;;;;;;;;;14.10;99.90;;;;;;6150891;23;19917;-80
2021/11/12 22:09:20;;;;;;;;;;;14.10;99.90;;;;;;6147463;23;19956;-80
2021/11/12 22:11:46;;;;;;;;;;;14.00;99.90;;;;;;6146029;23;19905;-80
2021/11/12 22:14:12;;;;;;;;;;;14.10;99.90;;;;;;6146210;23;19929;-81
2021/11/12 22:16:38;;;;;;;;;;;14.10;99.90;;;;;;6148872;23;19937;-81
2021/11/12 22:19:03;;;;;;;;;;;14.00;99.90;;;;;;6147797;23;19948;-82
2021/11/12 22:21:29;;;;;;;;;;;14.00;99.90;;;;;;6146845;23;20341;-81
2021/11/12 22:23:55;;;;;;;;;;;14.00;99.90;;;;;;6149317;23;20333;-81
2021/11/12 22:26:21;;;;;;;;;;;14.00;99.90;;;;;;6148742;23;20110;-80
2021/11/12 22:28:51;;;;;;;;;;;13.90;99.90;;;;;;6123168;23;20354;-82
2021/11/12 22:31:17;;;;;;;;;;;14.00;99.90;;;;;;6149684;23;19904;-80
2021/11/12 22:33:43;;;;;;;;;;;14.00;99.90;;;;;;6148936;23;19904;-82
2021/11/12 22:36:09;;;;;;;;;;;14.10;99.90;;;;;;6123288;23;19911;-82
2021/11/12 22:38:35;;;;;;;;;;;14.10;99.90;;;;;;6149820;23;19893;-82
2021/11/12 22:41:01;;;;;;;;;;;14.00;99.90;;;;;;6149896;23;19912;-81
2021/11/12 22:43:27;;;;;;;;;;;14.00;99.90;;;;;;6150972;23;19905;-82
2021/11/12 22:45:53;;;;;;;;;;;14.00;99.90;;;;;;6150169;23;19916;-82
2021/11/12 22:48:19;;;;;;;;;;;14.00;99.90;;;;;;6150419;23;19901;-81
2021/11/12 22:50:45;;;;;;;;;;;14.10;99.90;;;;;;6150302;23;19909;-81
2021/11/12 22:53:11;;;;;;;;;;;14.10;99.90;;;;;;6150049;23;19985;-81
2021/11/12 22:55:37;;;;;;;;;;;14.10;99.90;;;;;;6149846;23;19905;-81
2021/11/12 22:58:02;;;;;;;;;;;14.10;99.90;;;;;;6150409;23;19905;-80
2021/11/12 23:00:31;;;;;;;;;;;14.10;99.90;;;;;;6150876;23;19951;-82
2021/11/12 23:02:57;;;;;;;;;;;14.20;99.90;;;;;;6150543;23;19905;-81
2021/11/12 23:05:23;;;;;;;;;;;14.20;99.90;;;;;;6150448;23;19913;-82
2021/11/12 23:07:49;;;;;;;;;;;14.20;99.90;;;;;;6149885;23;19956;-84
2021/11/12 23:10:15;;;;;;;;;;;14.30;99.90;;;;;;6124853;23;19892;-82
2021/11/12 23:12:41;;;;;;;;;;;14.30;99.90;;;;;;6124323;23;19895;-80
2021/11/12 23:15:07;;;;;;;;;;;14.20;99.90;;;;;;6148657;23;19905;-79
2021/11/12 23:17:32;;;;;;;;;;;14.20;99.90;;;;;;6148846;23;19917;-79
2021/11/12 23:19:58;;;;;;;;;;;14.20;99.90;;;;;;6150581;23;19912;-79
2021/11/12 23:22:26;;;;;;;;;;;14.30;99.90;;;;;;6150284;23;19928;-79
2021/11/12 23:24:52;;;;;;;;;;;14.20;99.90;;;;;;6149407;23;19933;-79
2021/11/12 23:27:18;;;;;;;;;;;14.20;99.90;;;;;;6149397;23;19925;-78
2021/11/12 23:29:43;;;;;;;;;;;14.40;99.90;;;;;;6149036;23;19917;-78
2021/11/12 23:32:09;;;;;;;;;;;14.40;99.90;;;;;;6148982;23;19920;-78
2021/11/12 23:34:35;;;;;;;;;;;14.40;99.90;;;;;;6151376;23;19901;-78
2021/11/12 23:37:00;;;;;;;;;;;14.40;99.90;;;;;;6152544;23;19897;-79
2021/11/12 23:39:26;;;;;;;;;;;14.50;99.90;;;;;;6152554;23;19893;-79
2021/11/12 23:41:52;;;;;;;;;;;14.40;99.90;;;;;;6148745;23;19890;-79
2021/11/12 23:44:17;;;;;;;;;;;14.20;99.90;;;;;;6149925;23;19913;-79
2021/11/12 23:46:43;;;;;;;;;;;14.10;99.90;;;;;;6150363;23;19909;-79
2021/11/12 23:49:09;;;;;;;;;;;14.20;99.90;;;;;;6149683;23;19912;-79
2021/11/12 23:51:34;;;;;;;;;;;14.10;99.90;;;;;;6149897;23;19905;-79
2021/11/12 23:54:00;;;;;;;;;;;14.10;99.90;;;;;;6149290;23;19929;-79
2021/11/12 23:56:26;;;;;;;;;;;14.10;99.90;;;;;;6123839;23;19921;-79
2021/11/12 23:58:52;;;;;;;;;;;14.10;99.90;;;;;;6150076;23;19909;-79
